Time;durP1;ratioP1;P1;durP2;ratioP2;P2;SDS_P1;SDS_P2;PMS_P1;PMS_P2;Temp;Humidity;BMP_temperature;BMP_pressure;BME280_temperature;BME280_humidity;BME280_pressure;Samples;Min_cycle;Max_cycle;Signal;HPM_P1;HPM_P2
2021/11/19 00:01:13;;;;;;;22.95;9.50;;;;;;;7.99;100.00;98663.53;5001409;28;20073;-81
2021/11/19 00:05:02;;;;;;;23.70;9.93;;;;;;;8.03;100.00;98683.44;4929426;28;20078;-80
2021/11/19 00:09:10;;;;;;;;;;;;;;;;;;;;;
2021/11/19 00:16:49;;;;;;;24.55;9.80;;;;;;;8.13;100.00;98677.22;4870776;29;20124;-79
2021/11/19 00:20:48;;;;;;;;;;;;;;;;;;;;;
2021/11/19 00:43:41;;;;;;;27.52;9.50;;;;;;;8.17;100.00;98672.91;4803836;29;20055;-79
2021/11/19 00:47:35;;;;;;;23.20;8.77;;;;;;;8.36;100.00;98703.63;4796831;29;20051;-79
2021/11/19 00:50:48;;;;;;;24.67;8.68;;;;;;;8.18;100.00;98681.81;4786705;30;20040;-80
2021/11/19 00:54:03;;;;;;;20.90;9.45;;;;;;;8.23;100.00;98669.13;4885903;23;20054;-83
2021/11/19 00:56:40;;;;;;;23.35;10.45;;;;;;;8.37;100.00;98699.06;4943736;29;20051;-82
2021/11/19 00:59:19;;;;;;;24.05;9.35;;;;;;;8.18;100.00;98666.44;4960220;29;20040;-87
2021/11/19 01:02:00;;;;;;;25.35;9.77;;;;;;;8.37;100.00;98690.97;4944520;29;20051;-87
2021/11/19 01:04:34;;;;;;;24.55;9.32;;;;;;;8.24;100.00;98678.81;4944132;29;20097;-82
2021/11/19 01:07:04;;;;;;;20.92;9.88;;;;;;;8.33;100.00;98681.81;4944191;29;20328;-82
2021/11/19 01:12:57;;;;;;;17.75;8.98;;;;;;;8.33;100.00;98693.41;4825347;29;20145;-83
2021/11/19 01:15:41;;;;;;;21.85;10.13;;;;;;;8.35;100.00;98702.03;4919740;29;20075;-87
2021/11/19 01:18:37;;;;;;;22.88;9.52;;;;;;;8.39;100.00;98697.69;4914678;29;20048;-88
2021/11/19 01:21:10;;;;;;;22.93;9.37;;;;;;;8.37;100.00;98697.16;4927619;29;20060;-87
2021/11/19 01:23:41;;;;;;;22.58;10.63;;;;;;;8.32;100.00;98681.00;4928940;29;20052;-85
2021/11/19 01:26:12;;;;;;;23.83;10.15;;;;;;;8.33;100.00;98688.03;4915563;29;20055;-85
2021/11/19 01:28:41;;;;;;;26.35;10.55;;;;;;;8.35;100.00;98693.94;4915369;29;20040;-87
2021/11/19 01:31:23;;;;;;;24.63;9.90;;;;;;;8.44;100.00;98694.97;4916009;29;20044;-88
2021/11/19 01:33:55;;;;;;;21.20;10.45;;;;;;;8.34;100.00;98680.72;4908101;29;20115;-85
2021/11/19 01:36:23;;;;;;;20.85;9.55;;;;;;;8.32;100.00;98683.69;4902699;29;20063;-82
2021/11/19 01:38:51;;;;;;;22.63;10.23;;;;;;;8.26;100.00;98676.66;4919313;29;20068;-82
2021/11/19 01:41:38;;;;;;;26.83;10.70;;;;;;;8.17;100.00;98667.53;4906618;29;20055;-82
2021/11/19 01:44:19;;;;;;;23.50;10.82;;;;;;;8.28;100.00;98690.72;4926539;29;20094;-84
2021/11/19 01:46:54;;;;;;;25.88;11.70;;;;;;;8.27;100.00;98672.09;4941486;29;20285;-80
2021/11/19 01:49:23;;;;;;;24.58;11.27;;;;;;;8.32;100.00;98693.66;4940717;29;20051;-82
2021/11/19 01:52:08;;;;;;;24.90;10.80;;;;;;;8.32;100.00;98693.66;4942893;29;20094;-81
2021/11/19 01:54:59;;;;;;;24.35;10.80;;;;;;;8.24;100.00;98686.91;4942506;29;20059;-83
2021/11/19 02:00:56;;;;;;;24.75;10.25;;;;;;;8.34;100.00;98697.72;4943707;29;20046;-85
2021/11/19 02:03:30;;;;;;;24.58;10.77;;;;;;;8.22;100.00;98681.00;4939559;29;20102;-82
2021/11/19 02:06:03;;;;;;;21.92;11.05;;;;;;;8.20;100.00;98691.25;4945297;29;20070;-82
2021/11/19 02:08:41;;;;;;;28.92;11.15;;;;;;;8.22;100.00;98697.19;4951469;29;20051;-84
2021/11/19 02:11:23;;;;;;;26.77;11.35;;;;;;;8.31;100.00;98684.75;4957870;29;20059;-83
2021/11/19 02:14:23;;;;;;;28.95;10.55;;;;;;;8.31;100.00;98687.47;4947366;29;20067;-84
2021/11/19 02:16:57;;;;;;;23.30;11.48;;;;;;;8.23;100.00;98692.59;4943241;29;20055;-84
2021/11/19 02:19:36;;;;;;;24.05;11.10;;;;;;;8.29;100.00;98695.03;4941256;29;20674;-82
2021/11/19 02:22:19;;;;;;;25.17;11.52;;;;;;;8.30;100.00;98699.34;4924261;29;20052;-84
2021/11/19 02:24:59;;;;;;;26.25;11.30;;;;;;;8.40;100.00;98695.81;4923509;29;20060;-83
2021/11/19 02:27:34;;;;;;;25.90;10.77;;;;;;;8.41;100.00;98692.03;4928646;29;20151;-83
2021/11/19 02:30:14;;;;;;;24.52;11.23;;;;;;;8.39;100.00;98688.81;4925550;29;20150;-83
2021/11/19 02:32:48;;;;;;;27.17;11.80;;;;;;;8.37;100.00;98677.47;4942651;29;20052;-84
2021/11/19 02:35:24;;;;;;;26.90;10.57;;;;;;;8.37;100.00;98672.88;4924777;29;20503;-85
2021/11/19 02:37:56;;;;;;;25.35;10.45;;;;;;;8.40;100.00;98682.31;4923456;29;20488;-82
2021/11/19 02:40:28;;;;;;;24.73;11.10;;;;;;;8.47;100.00;98691.72;4923324;29;20060;-83
2021/11/19 02:43:05;;;;;;;26.77;11.05;;;;;;;8.38;100.00;98679.91;4922670;29;20055;-81
2021/11/19 02:45:36;;;;;;;21.25;10.50;;;;;;;8.52;100.00;98697.13;4922649;29;20060;-83
2021/11/19 03:01:57;;;;;;;21.55;10.93;;;;;;;8.37;100.00;98696.34;5005276;23;20325;-84
2021/11/19 03:04:59;;;;;;;22.77;11.13;;;;;;;8.41;100.00;98686.66;4997312;28;20041;-83
2021/11/19 03:07:31;;;;;;;24.17;11.32;;;;;;;8.37;100.00;98696.34;4995457;28;20470;-83
2021/11/19 03:10:07;;;;;;;21.17;11.02;;;;;;;8.43;100.00;98692.56;5005116;28;20044;-82
2021/11/19 03:12:37;;;;;;;26.27;10.50;;;;;;;8.40;100.00;98679.63;5004655;28;20351;-83
2021/11/19 03:15:13;;;;;;;23.90;10.85;;;;;;;8.37;100.00;98678.28;4987546;28;20345;-81
2021/11/19 03:17:42;;;;;;;22.73;10.77;;;;;;;8.50;100.00;98703.88;4985167;28;20051;-81
2021/11/19 03:20:28;;;;;;;23.00;10.85;;;;;;;8.51;100.00;98702.78;4996053;23;20096;-86
2021/11/19 03:22:58;;;;;;;21.30;11.07;;;;;;;8.47;100.00;98704.41;5006726;23;20070;-82
2021/11/19 03:25:28;;;;;;;19.48;10.43;;;;;;;8.55;100.00;98711.94;4981094;28;20448;-83
2021/11/19 03:27:58;;;;;;;22.98;10.73;;;;;;;8.43;100.00;98696.09;4998533;28;20112;-83
2021/11/19 03:30:27;;;;;;;23.80;11.50;;;;;;;8.49;100.00;98707.66;4998160;28;20457;-82
2021/11/19 03:32:58;;;;;;;22.38;10.57;;;;;;;8.48;100.00;98689.84;4978339;28;20046;-82
2021/11/19 03:35:30;;;;;;;23.38;11.23;;;;;;;8.44;100.00;98689.59;4978379;28;20070;-83
2021/11/19 03:37:58;;;;;;;20.45;10.38;;;;;;;8.45;100.00;98695.78;4962087;28;20050;-81
2021/11/19 03:40:29;;;;;;;22.40;10.70;;;;;;;8.59;100.00;98708.41;4961628;28;20077;-83
2021/11/19 03:42:59;;;;;;;20.30;10.57;;;;;;;8.53;100.00;98679.84;4961691;28;20050;-83
2021/11/19 03:45:33;;;;;;;22.98;11.07;;;;;;;8.53;100.00;98695.22;4977686;28;20062;-82
2021/11/19 03:48:06;;;;;;;22.30;11.10;;;;;;;8.54;100.00;98704.94;4961404;28;20097;-83
2021/11/19 03:50:41;;;;;;;23.98;10.85;;;;;;;8.64;100.00;98705.72;4961020;28;20101;-81
2021/11/19 03:53:12;;;;;;;23.43;10.73;;;;;;;8.65;100.00;98707.31;4961789;28;20086;-82
2021/11/19 03:55:46;;;;;;;22.73;10.20;;;;;;;8.68;100.00;98716.75;4961256;28;20081;-82
2021/11/19 03:58:34;;;;;;;20.90;10.45;;;;;;;8.67;100.00;98718.66;4962483;28;20061;-82
2021/11/19 04:01:28;;;;;;;17.88;9.57;;;;;;;8.58;100.00;98708.69;4959048;28;20175;-82
2021/11/19 04:04:03;;;;;;;21.13;10.27;;;;;;;8.46;100.00;98695.53;4958556;28;20491;-84
2021/11/19 04:06:42;;;;;;;19.35;10.13;;;;;;;8.57;100.00;98688.19;4960325;28;20057;-82
2021/11/19 04:09:09;;;;;;;23.08;11.23;;;;;;;8.52;100.00;98691.72;4959534;28;20042;-81
2021/11/19 04:11:41;;;;;;;25.40;11.23;;;;;;;8.51;100.00;98703.63;4964810;28;20462;-84
2021/11/19 04:14:14;;;;;;;21.02;10.85;;;;;;;8.45;100.00;98702.00;4970235;28;20046;-85
2021/11/19 04:16:47;;;;;;;24.35;10.95;;;;;;;8.50;100.00;98707.38;4968142;28;20042;-84
2021/11/19 04:19:27;;;;;;;23.98;10.93;;;;;;;8.45;100.00;98691.22;4965468;28;20195;-84
2021/11/19 04:21:58;;;;;;;22.58;11.45;;;;;;;8.28;100.00;98679.94;4984592;28;20046;-84
2021/11/19 04:24:33;;;;;;;19.80;10.38;;;;;;;8.53;100.00;98706.84;4983612;28;20101;-82
2021/11/19 04:27:05;;;;;;;23.77;10.68;;;;;;;8.50;100.00;98710.09;4981913;28;20054;-84
2021/11/19 04:29:35;;;;;;;20.15;10.13;;;;;;;8.51;100.00;98694.69;4979585;28;20051;-83
2021/11/19 04:32:08;;;;;;;22.80;10.88;;;;;;;8.52;100.00;98710.59;4980829;28;20137;-82
2021/11/19 04:34:41;;;;;;;21.83;10.23;;;;;;;8.53;100.00;98720.34;4986317;28;20054;-84
2021/11/19 04:37:13;;;;;;;18.88;10.15;;;;;;;8.45;100.00;98711.97;4984442;28;20054;-85
2021/11/19 04:39:58;;;;;;;19.15;10.57;;;;;;;8.44;100.00;98721.97;4985131;28;20050;-82
2021/11/19 04:42:36;;;;;;;19.65;9.85;;;;;;;8.35;100.00;98709.31;4982631;28;20119;-84
2021/11/19 04:45:05;;;;;;;21.17;10.18;;;;;;;8.28;100.00;98692.63;4997144;28;20069;-81
2021/11/19 04:47:40;;;;;;;20.13;10.00;;;;;;;8.29;100.00;98684.25;4980505;28;20395;-85
2021/11/19 04:50:12;;;;;;;17.42;9.63;;;;;;;8.35;100.00;98685.03;4980050;28;20046;-83
2021/11/19 04:52:43;;;;;;;20.17;10.45;;;;;;;8.40;100.00;98704.72;4982656;28;20050;-85
2021/11/19 04:55:11;;;;;;;17.58;9.63;;;;;;;8.41;100.00;98716.31;4986139;28;20324;-83
2021/11/19 04:57:38;;;;;;;21.48;10.32;;;;;;;8.37;100.00;98720.63;4988230;28;20061;-85
2021/11/19 05:00:36;;;;;;;23.42;10.75;;;;;;;8.30;100.00;98693.97;4985584;28;20086;-86
2021/11/19 05:03:06;;;;;;;20.77;10.48;;;;;;;8.36;100.00;98692.84;5002891;28;20070;-82
2021/11/19 05:05:36;;;;;;;26.05;10.95;;;;;;;8.20;100.00;98677.78;4983270;28;20410;-84
2021/11/19 05:08:12;;;;;;;23.38;11.27;;;;;;;8.14;100.00;98671.56;4979725;28;20057;-84
2021/11/19 05:10:59;;;;;;;23.50;10.27;;;;;;;8.32;100.00;98689.09;4977952;28;20660;-83
2021/11/19 05:13:38;;;;;;;21.50;10.77;;;;;;;8.18;100.00;98669.94;4978088;28;20058;-83
2021/11/19 05:16:48;;;;;;;24.58;11.38;;;;;;;8.09;100.00;98668.91;4980769;28;20050;-82
2021/11/19 05:19:35;;;;;;;21.85;11.73;;;;;;;8.30;100.00;98688.56;4969958;28;20462;-80
2021/11/19 05:22:18;;;;;;;21.83;11.93;;;;;;;8.37;100.00;98694.47;4991499;28;20054;-81
2021/11/19 05:24:45;;;;;;;23.48;11.82;;;;;;;8.45;100.00;98699.31;4992330;28;20578;-81
2021/11/19 05:27:12;;;;;;;23.73;12.25;;;;;;;8.35;100.00;98690.44;4975713;28;20082;-79
2021/11/19 05:30:07;;;;;;;21.45;11.65;;;;;;;8.31;100.00;98700.94;4995519;28;20054;-82
2021/11/19 05:37:24;;;;;;;22.67;12.32;;;;;;;8.28;100.00;98701.53;5002534;28;20050;-84
2021/11/19 05:39:54;;;;;;;24.30;12.27;;;;;;;8.03;100.00;98678.06;5012177;28;20081;-86
2021/11/19 05:42:54;;;;;;;25.83;12.70;;;;;;;8.21;100.00;98694.75;4995937;28;20042;-86
2021/11/19 05:45:31;;;;;;;21.77;12.77;;;;;;;8.23;100.00;98698.81;5010836;28;20053;-88
2021/11/19 05:48:07;;;;;;;22.98;12.40;;;;;;;8.06;100.00;98674.81;5012246;28;20050;-88
2021/11/19 05:51:10;;;;;;;;;;;;;;;8.12;100.00;98703.41;5009690;28;20042;-84
2021/11/19 05:53:51;;;;;;;22.95;13.25;;;;;;;8.13;100.00;98685.31;5001385;28;19929;-84
2021/11/19 05:56:38;;;;;;;25.02;12.32;;;;;;;8.11;100.00;98691.00;4983082;28;20054;-84
2021/11/19 05:59:11;;;;;;;22.42;11.60;;;;;;;8.19;100.00;98703.13;4996994;28;20046;-83
2021/11/19 06:04:22;;;;;;;20.92;11.02;;;;;;;8.20;100.00;98729.03;5246464;23;20050;-82
2021/11/19 06:06:54;;;;;;;22.00;11.20;;;;;;;8.15;100.00;98721.72;4988595;28;20054;-82
2021/11/19 06:09:28;;;;;;;22.65;11.38;;;;;;;8.18;100.00;98712.31;4987875;28;20091;-82
2021/11/19 06:11:59;;;;;;;17.63;10.25;;;;;;;8.23;100.00;98719.56;4988224;28;20100;-82
2021/11/19 06:14:46;;;;;;;21.67;11.07;;;;;;;8.14;100.00;98716.63;4981105;28;20058;-81
2021/11/19 06:17:19;;;;;;;18.95;10.93;;;;;;;8.20;100.00;98720.13;4958885;28;20053;-81
2021/11/19 06:19:50;;;;;;;23.27;11.65;;;;;;;8.22;100.00;98701.75;4963773;28;20121;-83
2021/11/19 06:22:21;;;;;;;18.70;11.32;;;;;;;8.18;100.00;98715.00;4970018;28;20133;-81
2021/11/19 06:24:51;;;;;;;21.95;11.70;;;;;;;8.21;100.00;98717.13;4982126;28;20181;-81
2021/11/19 06:27:23;;;;;;;20.98;11.40;;;;;;;8.22;100.00;98715.25;4986299;28;20050;-82
2021/11/19 06:29:54;;;;;;;19.75;11.75;;;;;;;8.26;100.00;98741.41;4987320;28;20065;-83
2021/11/19 06:32:22;;;;;;;19.73;12.02;;;;;;;8.36;100.00;98740.63;4959876;28;20128;-84
2021/11/19 06:34:55;;;;;;;21.20;11.88;;;;;;;8.35;100.00;98736.28;4988997;28;20050;-83
2021/11/19 06:37:22;;;;;;;21.27;11.75;;;;;;;8.35;100.00;98741.69;4972088;28;20491;-83
2021/11/19 06:39:51;;;;;;;22.38;12.07;;;;;;;8.38;100.00;98744.66;4968773;28;20043;-85
2021/11/19 06:42:41;;;;;;;21.85;12.25;;;;;;;8.29;100.00;98721.19;5015610;23;20080;-84
2021/11/19 06:45:34;;;;;;;20.88;11.77;;;;;;;8.40;100.00;98750.59;4986433;28;20451;-83
2021/11/19 06:48:10;;;;;;;;;;;;;;;8.43;100.00;98755.44;4950240;28;20129;-83
2021/11/19 06:50:50;;;;;;;;;;;;;;;8.49;100.00;98753.53;4974691;28;19922;-83
2021/11/19 06:53:40;;;;;;;22.20;11.40;;;;;;;8.37;100.00;98747.63;4946265;28;20033;-83
2021/11/19 06:56:21;;;;;;;15.80;10.70;;;;;;;8.34;100.00;98729.28;4952504;28;20103;-83
2021/11/19 06:58:54;;;;;;;18.88;11.07;;;;;;;8.42;100.00;98737.63;4986183;28;20065;-83
2021/11/19 07:01:50;;;;;;;;;;;;;;;;;;;;;
2021/11/19 07:45:05;;;;;;;12.23;7.28;;;;;;;8.76;100.00;98786.38;4911032;29;20052;-82
2021/11/19 07:56:06;;;;;;;9.85;6.20;;;;;;;8.83;100.00;98780.72;4971303;28;20123;-83
2021/11/19 07:59:30;;;;;;;8.98;5.60;;;;;;;9.10;100.00;98808.16;4989033;28;20070;-82
2021/11/19 08:02:34;;;;;;;7.28;5.35;;;;;;;9.00;100.00;98798.19;4988118;28;20069;-82
2021/11/19 08:06:18;;;;;;;9.68;5.70;;;;;;;9.16;100.00;98818.66;4986282;28;20046;-82
2021/11/19 08:09:41;;;;;;;;;;;;;;;;;;;;;
2021/11/19 08:17:15;;;;;;;7.82;4.85;;;;;;;9.24;100.00;98818.06;4891827;29;20052;-83
2021/11/19 08:24:09;;;;;;;8.40;5.00;;;;;;;9.28;100.00;98819.16;4967344;23;20049;-83
2021/11/19 08:28:09;;;;;;;12.40;4.55;;;;;;;9.19;100.00;98804.59;4917458;29;20043;-82
2021/11/19 08:33:29;;;;;;;8.23;4.35;;;;;;;9.16;100.00;98802.44;4896184;29;20053;-83
2021/11/19 08:35:56;;;;;;;6.53;4.10;;;;;;;9.16;100.00;98804.34;4901414;29;20104;-80
2021/11/19 08:38:24;;;;;;;6.53;4.40;;;;;;;9.16;100.00;98817.84;4917170;29;20080;-85
2021/11/19 08:40:51;;;;;;;8.70;4.85;;;;;;;9.14;100.00;98807.31;4916485;29;20104;-83
2021/11/19 08:50:05;;;;;;;8.02;4.10;;;;;;;9.10;100.00;98800.84;4940935;29;20039;-82
2021/11/19 08:59:55;;;;;;;6.80;4.53;;;;;;;9.13;100.00;98796.78;4910690;29;20111;-81
2021/11/19 09:03:15;;;;;;;7.03;4.43;;;;;;;9.16;100.00;98797.03;4895183;29;20086;-83
2021/11/19 09:06:28;;;;;;;7.68;4.40;;;;;;;9.01;100.00;98777.38;4833219;29;20563;-80
2021/11/19 09:09:17;;;;;;;8.07;4.38;;;;;;;9.13;100.00;98803.00;4834774;29;20054;-82
2021/11/19 09:12:20;;;;;;;9.02;4.70;;;;;;;9.16;100.00;98798.94;4828299;29;20054;-81
2021/11/19 09:15:19;;;;;;;9.27;4.10;;;;;;;9.11;100.00;98802.47;4836575;29;20084;-81
2021/11/19 09:18:16;;;;;;;12.23;4.30;;;;;;;9.25;100.00;98808.91;4839040;29;20034;-82
2021/11/19 09:24:59;;;;;;;8.75;3.85;;;;;;;9.36;100.00;98796.16;4875248;29;20044;-81
2021/11/19 09:27:58;;;;;;;8.50;3.80;;;;;;;9.27;100.00;98781.59;4931324;29;20127;-81
2021/11/19 09:31:19;;;;;;;8.40;3.63;;;;;;;9.30;100.00;98760.22;4929447;29;20135;-82
2021/11/19 09:34:20;;;;;;;5.05;3.15;;;;;;;9.35;100.00;98770.19;4908257;29;20062;-82
2021/11/19 09:37:09;;;;;;;6.53;3.53;;;;;;;9.49;100.00;98787.41;4925968;29;20047;-82
2021/11/19 09:39:55;;;;;;;5.85;2.90;;;;;;;9.42;100.00;98778.78;4935490;29;20059;-81
2021/11/19 09:42:53;;;;;;;8.00;3.17;;;;;;;9.57;100.00;98773.31;4902251;29;20064;-81
2021/11/19 09:50:16;;;;;;;;;;;;;;;;;;;;;
2021/11/19 09:54:29;;;;;;;6.60;2.85;;;;;;;9.62;100.00;98772.47;4884682;29;20056;-84
2021/11/19 09:58:32;;;;;;;4.65;2.80;;;;;;;9.70;100.00;98790.81;4889128;29;20051;-84
2021/11/19 10:15:12;;;;;;;3.55;2.40;;;;;;;9.45;100.00;98769.31;5180717;23;20052;-82
2021/11/19 10:18:22;;;;;;;3.28;2.20;;;;;;;9.75;100.00;98766.44;4937674;29;20052;-83
2021/11/19 10:21:51;;;;;;;2.97;1.83;;;;;;;9.76;100.00;98739.09;4921342;29;20063;-83
2021/11/19 10:39:59;;;;;;;3.80;1.60;;;;;;;9.77;100.00;98740.72;4956580;28;20063;-82
2021/11/19 10:47:14;;;;;;;;;;;;;;;;;;;;;
2021/11/19 10:50:47;;;;;;;5.10;1.83;;;;;;;9.71;100.00;98751.84;4911579;29;20055;-82
2021/11/19 10:58:27;;;;;;;3.80;1.85;;;;;;;9.75;100.00;98758.31;4901111;29;20548;-83
2021/11/19 11:02:07;;;;;;;3.95;2.08;;;;;;;9.84;100.00;98759.31;4877649;29;20048;-83
2021/11/19 11:09:55;;;;;;;2.33;1.70;;;;;;;9.55;100.00;98720.63;4939335;29;20170;-82
2021/11/19 11:13:32;;;;;;;;;;;;;;;;;;;;;
2021/11/19 11:40:23;;;;;;;3.38;2.35;;;;;;;9.75;100.00;98766.44;5417625;23;20088;-84
2021/11/19 11:43:17;;;;;;;5.10;2.70;;;;;;;9.79;100.00;98762.88;4949355;28;20102;-85
2021/11/19 11:47:16;;;;;;;;;;;;;;;;;;;;;
2021/11/19 11:50:35;;;;;;;6.30;3.22;;;;;;;9.71;100.00;98771.59;4895246;29;20052;-85
2021/11/19 12:41:23;;;;;;;9.85;5.18;;;;;;;9.07;100.00;98762.78;4992368;28;20054;-84
2021/11/19 12:43:58;;;;;;;7.38;5.22;;;;;;;9.07;100.00;98765.47;4975382;28;20570;-86
2021/11/19 12:46:52;;;;;;;8.90;5.60;;;;;;;9.02;100.00;98765.50;4993262;28;20116;-84
2021/11/19 12:49:36;;;;;;;10.70;6.20;;;;;;;8.99;100.00;98757.94;4974414;28;20043;-86
2021/11/19 13:00:29;;;;;;;11.48;6.00;;;;;;;8.91;100.00;98726.91;4965021;28;20125;-75
2021/11/19 13:20:07;;;;;;;11.52;5.57;;;;;;;8.81;100.00;98762.06;4810071;29;20566;-83
2021/11/19 13:35:25;;;;;;;8.77;5.13;;;;;;;8.67;100.00;98761.84;4824028;29;20050;-81
2021/11/19 13:43:04;;;;;;;10.68;6.03;;;;;;;8.64;100.00;98743.53;4856776;29;20041;-81
2021/11/19 14:05:16;;;;;;;;;;;;;;;;;;;;;
2021/11/19 14:17:10;;;;;;;;;;;;;;;;;;;;;
2021/11/19 14:23:22;;;;;;;11.68;5.68;;;;;;;8.71;100.00;98762.09;4949402;29;20401;-80
2021/11/19 14:25:56;;;;;;;11.07;5.25;;;;;;;8.69;100.00;98762.41;4932849;29;20048;-81
2021/11/19 14:28:48;;;;;;;9.30;6.03;;;;;;;8.68;100.00;98768.88;4939135;29;20123;-79
2021/11/19 14:31:16;;;;;;;10.75;7.13;;;;;;;8.66;100.00;98765.63;4930093;29;20138;-78
2021/11/19 14:33:57;;;;;;;9.93;7.07;;;;;;;8.66;100.00;98765.63;4912980;29;20052;-78
2021/11/19 14:36:29;;;;;;;9.82;7.22;;;;;;;8.63;100.00;98768.88;4913104;29;20784;-79
2021/11/19 14:39:03;;;;;;;9.15;6.78;;;;;;;8.61;100.00;98768.34;4911034;29;20062;-79
2021/11/19 14:41:44;;;;;;;10.20;7.15;;;;;;;8.64;100.00;98762.41;4908718;29;20044;-80
2021/11/19 14:44:17;;;;;;;13.45;7.90;;;;;;;8.66;100.00;98756.72;4911542;29;20174;-79
2021/11/19 14:46:49;;;;;;;12.15;6.90;;;;;;;8.72;100.00;98761.81;4914977;29;20103;-80
2021/11/19 14:49:49;;;;;;;9.77;5.75;;;;;;;8.64;100.00;98770.50;4914249;29;20074;-79
2021/11/19 14:52:28;;;;;;;8.95;5.70;;;;;;;8.67;100.00;98758.34;4898001;29;20130;-81
2021/11/19 15:24:48;;;;;;;9.57;6.47;;;;;;;8.59;100.00;98769.72;4134275;23;20111;-83
2021/11/19 15:27:27;;;;;;;6.72;4.95;;;;;;;8.57;100.00;98769.16;4968525;28;20134;-83
2021/11/19 15:30:23;;;;;;;6.85;4.65;;;;;;;8.62;100.00;98769.16;4966696;28;20113;-84
2021/11/19 15:33:16;;;;;;;8.02;4.85;;;;;;;8.55;100.00;98761.34;4978289;28;20051;-82
2021/11/19 15:36:36;;;;;;;;;;;;;;;;;;;;;
2021/11/19 15:39:26;;;;;;;6.30;4.05;;;;;;;8.40;100.00;98747.06;4954606;28;20031;-85
2021/11/19 15:42:06;;;;;;;6.70;4.35;;;;;;;8.43;100.00;98757.31;4977065;28;20113;-84
2021/11/19 15:44:42;;;;;;;6.80;4.35;;;;;;;8.64;100.00;98775.09;4981346;28;20050;-84
2021/11/19 15:47:35;;;;;;;7.15;3.63;;;;;;;8.55;100.00;98766.75;4972556;28;20051;-86
2021/11/19 15:50:10;;;;;;;5.65;3.92;;;;;;;8.44;100.00;98748.94;4969324;28;20117;-84
2021/11/19 15:53:00;;;;;;;6.57;4.03;;;;;;;8.62;100.00;98769.16;4971375;28;20154;-84
2021/11/19 15:56:16;;;;;;;7.30;4.10;;;;;;;8.63;100.00;98768.06;4978360;28;20118;-85
2021/11/19 15:59:21;;;;;;;8.02;3.92;;;;;;;8.62;100.00;98767.25;4969585;28;20158;-84
2021/11/19 16:02:38;;;;;;;8.73;3.97;;;;;;;8.66;100.00;98781.84;4956505;28;20050;-85
2021/11/19 16:05:14;;;;;;;5.78;3.22;;;;;;;8.65;100.00;98774.00;4965311;28;20105;-84
2021/11/19 16:08:01;;;;;;;8.85;3.50;;;;;;;8.71;100.00;98773.72;4956116;28;20047;-84
2021/11/19 16:11:10;;;;;;;6.57;3.50;;;;;;;8.71;100.00;98772.91;4982959;28;20065;-86
2021/11/19 16:13:46;;;;;;;6.60;3.60;;;;;;;8.63;100.00;98759.97;4974777;28;20593;-84
2021/11/19 16:16:45;;;;;;;7.07;3.80;;;;;;;8.69;100.00;98761.59;4965249;28;20055;-84
2021/11/19 16:19:26;;;;;;;6.18;3.47;;;;;;;8.74;100.00;98772.38;4954887;28;20055;-85
2021/11/19 16:22:11;;;;;;;8.57;3.92;;;;;;;8.78;100.00;98782.34;4956875;28;20075;-83
2021/11/19 16:24:49;;;;;;;7.55;3.78;;;;;;;8.73;100.00;98768.84;4973272;28;20489;-86
2021/11/19 16:27:36;;;;;;;;;;;;;;;;;;;;;
2021/11/19 16:30:28;;;;;;;6.63;4.13;;;;;;;8.72;100.00;98767.22;4957848;28;20515;-84
2021/11/19 16:33:06;;;;;;;6.90;4.10;;;;;;;8.76;100.00;98778.28;4957134;28;20066;-84
2021/11/19 16:35:34;;;;;;;6.40;4.55;;;;;;;8.72;100.00;98777.22;4963465;28;20062;-87
2021/11/19 16:38:13;;;;;;;10.23;4.70;;;;;;;8.61;100.00;98762.97;4959026;28;20551;-88
2021/11/19 16:41:00;;;;;;;8.38;4.68;;;;;;;8.65;100.00;98771.28;4951769;28;20047;-86
2021/11/19 16:43:35;;;;;;;12.02;5.10;;;;;;;8.59;100.00;98767.78;4964145;28;20051;-85
2021/11/19 16:46:29;;;;;;;;;;;;;;;;;;;;;
2021/11/19 16:49:16;;;;;;;10.85;5.32;;;;;;;8.59;100.00;98758.91;4972172;28;20622;-86
2021/11/19 16:52:10;;;;;;;7.07;4.53;;;;;;;8.66;100.00;98759.44;4966856;28;20050;-83
2021/11/19 16:54:38;;;;;;;9.32;4.90;;;;;;;8.63;100.00;98768.06;4972501;28;20047;-86
2021/11/19 16:57:10;;;;;;;6.90;4.70;;;;;;;8.68;100.00;98757.25;4961745;28;20058;-86
2021/11/19 16:59:38;;;;;;;9.90;5.22;;;;;;;8.60;100.00;98747.03;4964719;28;20550;-85
2021/11/19 17:02:09;;;;;;;11.68;5.18;;;;;;;8.62;100.00;98759.16;4971425;28;20046;-88
2021/11/19 17:05:08;;;;;;;10.50;5.05;;;;;;;8.54;100.00;98750.84;4977638;28;20483;-86
2021/11/19 17:08:10;;;;;;;9.93;4.93;;;;;;;8.54;100.00;98748.91;4967907;28;20047;-82
2021/11/19 17:10:46;;;;;;;7.60;5.07;;;;;;;8.69;100.00;98770.50;4964825;28;20138;-86
2021/11/19 17:13:55;;;;;;;;;;;;;;;;;;;;;
2021/11/19 17:16:27;;;;;;;10.20;4.68;;;;;;;8.59;100.00;98757.00;4965026;28;20043;-85
2021/11/19 17:19:02;;;;;;;8.15;4.82;;;;;;;8.71;100.00;98776.41;4954523;28;20484;-84
2021/11/19 17:21:36;;;;;;;8.07;5.43;;;;;;;8.54;100.00;98745.44;4952778;28;20062;-84
2021/11/19 17:24:19;;;;;;;9.77;5.30;;;;;;;8.66;100.00;98764.81;4953456;29;20423;-86
2021/11/19 17:27:06;;;;;;;8.43;5.32;;;;;;;8.69;100.00;98773.19;4962518;28;20050;-82
2021/11/19 17:29:47;;;;;;;9.00;5.93;;;;;;;8.62;100.00;98756.47;4973660;28;20117;-83
2021/11/19 17:32:21;;;;;;;9.43;5.90;;;;;;;8.72;100.00;98771.84;4976858;28;20376;-83
2021/11/19 17:34:49;;;;;;;;;;;;;;;8.71;100.00;98786.41;4972431;28;20505;-83
2021/11/19 17:37:22;;;;;;;9.90;6.07;;;;;;;8.59;100.00;98756.22;4971795;28;19984;-83
2021/11/19 17:40:03;;;;;;;13.27;6.32;;;;;;;8.69;100.00;98773.19;4960904;28;20387;-82
2021/11/19 17:42:33;;;;;;;10.50;6.35;;;;;;;8.73;100.00;98773.44;4952777;28;20137;-84
2021/11/19 17:45:01;;;;;;;14.68;7.18;;;;;;;8.63;100.00;98760.78;4965242;28;20514;-84
2021/11/19 17:47:29;;;;;;;10.68;7.20;;;;;;;8.65;100.00;98772.09;4985249;28;20069;-82
2021/11/19 17:50:00;;;;;;;11.93;7.10;;;;;;;8.68;100.00;98763.47;4969199;28;20058;-83
2021/11/19 17:52:34;;;;;;;11.43;7.38;;;;;;;8.75;100.00;98771.25;4965274;28;20047;-82
2021/11/19 17:55:06;;;;;;;10.95;7.15;;;;;;;8.72;100.00;98766.44;4958523;28;20063;-82
2021/11/19 17:57:36;;;;;;;11.93;7.53;;;;;;;8.70;100.00;98761.28;4973880;28;20053;-82
2021/11/19 18:00:14;;;;;;;13.80;7.88;;;;;;;8.59;100.00;98764.31;4989848;28;20113;-83
2021/11/19 18:02:43;;;;;;;16.67;8.55;;;;;;;8.62;100.00;98756.47;4971288;28;20062;-84
2021/11/19 18:05:12;;;;;;;13.38;7.57;;;;;;;8.63;100.00;98776.97;4977665;28;20062;-84
2021/11/19 18:07:40;;;;;;;12.80;7.90;;;;;;;8.65;100.00;98764.00;4972044;28;20050;-85
2021/11/19 18:10:09;;;;;;;11.93;7.95;;;;;;;8.69;100.00;98761.59;4982946;28;20062;-84
2021/11/19 18:12:42;;;;;;;13.43;9.10;;;;;;;8.81;100.00;98789.06;4977671;28;20051;-83
2021/11/19 18:15:13;;;;;;;14.02;7.97;;;;;;;8.82;100.00;98774.50;4975790;28;20050;-86
2021/11/19 18:17:46;;;;;;;11.75;7.53;;;;;;;8.88;100.00;98767.19;4972426;28;20574;-83
2021/11/19 18:20:18;;;;;;;12.13;7.28;;;;;;;8.95;100.00;98789.31;4970215;28;20514;-83
2021/11/19 18:22:45;;;;;;;10.95;6.63;;;;;;;8.80;100.00;98787.44;4974652;28;20062;-83
2021/11/19 18:25:15;;;;;;;11.25;6.85;;;;;;;8.78;100.00;98770.72;4983004;28;20507;-82
2021/11/19 18:27:45;;;;;;;12.43;6.82;;;;;;;8.80;100.00;98765.06;4955228;28;20055;-83
2021/11/19 18:30:26;;;;;;;10.88;6.75;;;;;;;8.72;100.00;98769.91;4953675;29;20508;-83
2021/11/19 18:32:53;;;;;;;13.75;6.68;;;;;;;8.70;100.00;98766.69;4970105;28;20043;-84
2021/11/19 18:35:22;;;;;;;11.80;6.95;;;;;;;8.83;100.00;98789.59;4992297;28;20046;-86
2021/11/19 18:38:00;;;;;;;10.43;6.68;;;;;;;8.76;100.00;98772.88;4988910;28;20050;-86
2021/11/19 18:40:38;;;;;;;10.57;7.03;;;;;;;8.86;100.00;98780.13;5002650;28;20062;-84
2021/11/19 18:43:07;;;;;;;11.18;7.45;;;;;;;8.87;100.00;98766.38;4979695;28;20054;-84
2021/11/19 18:46:00;;;;;;;11.50;6.88;;;;;;;8.89;100.00;98760.69;4982891;28;20078;-84
2021/11/19 18:48:31;;;;;;;12.00;7.03;;;;;;;8.91;100.00;98766.63;4972811;28;20055;-82
2021/11/19 18:51:00;;;;;;;10.98;7.05;;;;;;;8.95;100.00;98781.19;4973632;28;20087;-85
2021/11/19 18:53:28;;;;;;;11.13;7.05;;;;;;;8.96;100.00;98772.81;4962614;28;20055;-86
2021/11/19 18:55:59;;;;;;;11.55;7.15;;;;;;;9.05;100.00;98779.28;4982469;28;20074;-84
2021/11/19 18:58:28;;;;;;;12.77;7.22;;;;;;;9.09;100.00;98769.50;4976795;28;20063;-85